createdAt,value
2019-04-27T00:02:24.946Z,95986.69
2019-04-27T00:05:32.021Z,95991.34
2019-04-27T00:08:19.948Z,95994.05
2019-04-27T00:11:13.674Z,95983.36
2019-04-27T00:13:45.170Z,95992.31
2019-04-27T00:16:50.918Z,96000.25
2019-04-27T00:19:39.870Z,95994.09
2019-04-27T00:22:33.458Z,95999.55
2019-04-27T00:25:05.782Z,96001.01
2019-04-27T00:27:37.142Z,96005.08
2019-04-27T00:30:08.601Z,96009.73
2019-04-27T00:32:40.056Z,96005.86
2019-04-27T00:35:13.843Z,96010.93
2019-04-27T00:37:59.567Z,96020.66
2019-04-27T00:40:34.972Z,95998.56
2019-04-27T00:43:06.305Z,95994.83
2019-04-27T00:45:37.699Z,95996.50
2019-04-27T00:48:09.143Z,95997.86
2019-04-27T00:50:40.361Z,96004.84
2019-04-27T00:53:13.270Z,96017.27
2019-04-27T00:56:17.621Z,96010.84
2019-04-27T00:59:06.881Z,96008.73
2019-04-27T01:01:43.637Z,96004.38
2019-04-27T01:04:19.921Z,96007.02
2019-04-27T01:06:51.356Z,96016.02
2019-04-27T01:09:23.697Z,96012.42
2019-04-27T01:11:55.022Z,96014.88
2019-04-27T01:14:26.505Z,96011.69
2019-04-27T01:16:59.814Z,96004.38
2019-04-27T01:19:31.437Z,96002.34
2019-04-27T01:22:02.752Z,96007.41
2019-04-27T01:24:34.011Z,96001.59
2019-04-27T01:27:23.694Z,96000.92
2019-04-27T01:29:55.848Z,96006.86
2019-04-27T01:32:29.162Z,96004.06
2019-04-27T01:35:00.074Z,96004.41
2019-04-27T01:37:31.270Z,96000.23
2019-04-27T01:40:03.201Z,96006.94
2019-04-27T01:42:34.422Z,96005.69
2019-04-27T01:45:06.108Z,96002.27
2019-04-27T01:47:39.074Z,96000.53
2019-04-27T01:50:10.760Z,95993.02
2019-04-27T01:52:41.952Z,95995.00
2019-04-27T01:55:13.203Z,95994.49
2019-04-27T01:57:44.413Z,96005.07
2019-04-27T02:00:32.566Z,95984.86
2019-04-27T02:03:05.582Z,95990.57
2019-04-27T02:05:56.711Z,95993.61
2019-04-27T02:08:28.632Z,95995.01
2019-04-27T02:11:00.117Z,96002.69
2019-04-27T02:13:31.650Z,96004.77
2019-04-27T02:16:02.973Z,95992.20
2019-04-27T02:18:37.580Z,95989.64
2019-04-27T02:21:09.116Z,95994.38
2019-04-27T02:23:40.907Z,96002.44
2019-04-27T02:26:12.381Z,96012.23
2019-04-27T02:28:58.535Z,96009.73
2019-04-27T02:31:54.575Z,96005.01
2019-04-27T02:34:30.279Z,96007.18
2019-04-27T02:37:02.567Z,96010.55
2019-04-27T02:39:34.261Z,96008.36
2019-04-27T02:42:05.856Z,96005.95
2019-04-27T02:44:41.180Z,96002.66
2019-04-27T02:47:12.352Z,96007.66
2019-04-27T02:49:43.842Z,96006.59
2019-04-27T02:52:22.042Z,96010.11
2019-04-27T02:54:53.498Z,96000.70
2019-04-27T02:57:24.785Z,96019.48
2019-04-27T02:59:56.100Z,96008.00
2019-04-27T03:02:33.366Z,96006.87
2019-04-27T03:05:04.938Z,96003.85
2019-04-27T03:07:39.962Z,95997.34
2019-04-27T03:10:09.923Z,96000.02
2019-04-27T03:12:46.668Z,95998.62
2019-04-27T03:15:46.330Z,95988.50
2019-04-27T03:18:51.007Z,95985.58
2019-04-27T03:21:26.135Z,95982.08
2019-04-27T03:24:00.065Z,95982.08
2019-04-27T03:26:50.060Z,95982.23
2019-04-27T03:29:23.004Z,95984.88
2019-04-27T03:31:54.785Z,95980.00
2019-04-27T03:34:26.585Z,95984.67
2019-04-27T03:36:59.745Z,95973.58
2019-04-27T03:39:32.814Z,95965.92
2019-04-27T03:42:03.904Z,95961.55
2019-04-27T03:44:35.308Z,95968.39
2019-04-27T03:47:06.533Z,95964.16
2019-04-27T03:49:41.661Z,95969.92
2019-04-27T03:52:30.185Z,95972.43
2019-04-27T03:55:14.652Z,95973.75
2019-04-27T03:58:03.463Z,95975.89
2019-04-27T04:00:34.717Z,95970.55
2019-04-27T04:03:06.032Z,95973.50
2019-04-27T04:05:39.681Z,95972.17
2019-04-27T04:08:10.934Z,95974.23
2019-04-27T04:10:50.949Z,95968.72
2019-04-27T04:13:29.561Z,95966.03
2019-04-27T04:16:07.792Z,95969.50
2019-04-27T04:19:09.467Z,95969.87
2019-04-27T04:21:40.373Z,95971.48
2019-04-27T04:24:12.479Z,95979.71
2019-04-27T04:26:44.193Z,95986.69
2019-04-27T04:29:15.488Z,95986.14
2019-04-27T04:31:46.890Z,95997.41
2019-04-27T04:34:19.754Z,96005.65
2019-04-27T04:36:51.387Z,96016.95
2019-04-27T04:39:22.948Z,96018.23
2019-04-27T04:42:06.134Z,96016.34
2019-04-27T04:44:50.337Z,96026.45
2019-04-27T04:47:40.524Z,96023.44
2019-04-27T04:50:15.024Z,96012.42
2019-04-27T04:52:44.473Z,96014.40
2019-04-27T04:55:16.095Z,96025.20
2019-04-27T04:57:49.317Z,96029.50
2019-04-27T05:00:20.581Z,96029.27
2019-04-27T05:02:52.092Z,96031.61
2019-04-27T05:05:23.488Z,96028.94
2019-04-27T05:07:54.712Z,96031.60
2019-04-27T05:10:26.077Z,96032.31
2019-04-27T05:12:59.070Z,96037.30
2019-04-27T05:15:30.635Z,96032.96
2019-04-27T05:18:02.030Z,96034.41
2019-04-27T05:21:04.647Z,96035.92
2019-04-27T05:23:36.316Z,96040.20
2019-04-27T05:26:09.189Z,96040.33
2019-04-27T05:28:40.893Z,96038.41
2019-04-27T05:31:12.413Z,96044.69
2019-04-27T05:33:43.897Z,96048.36
2019-04-27T05:36:15.446Z,96041.56
2019-04-27T05:38:47.326Z,96040.97
2019-04-27T05:41:18.838Z,96042.17
2019-04-27T05:44:12.721Z,96048.55
2019-04-27T05:47:09.986Z,96056.56
2019-04-27T05:50:03.742Z,96045.07
2019-04-27T05:52:34.956Z,96050.14
2019-04-27T05:55:06.302Z,96046.77
2019-04-27T05:57:39.059Z,96048.10
2019-04-27T06:00:12.791Z,96040.23
2019-04-27T06:02:45.366Z,96042.95
2019-04-27T06:05:22.892Z,96044.64
2019-04-27T06:07:54.417Z,96042.66
2019-04-27T06:10:25.656Z,96041.12
2019-04-27T06:12:57.177Z,96039.28
2019-04-27T06:15:30.181Z,96036.60
2019-04-27T06:18:03.215Z,96024.01
2019-04-27T06:20:34.386Z,96021.67
2019-04-27T06:23:05.591Z,96022.48
2019-04-27T06:25:39.214Z,96020.92
2019-04-27T06:28:10.052Z,96023.33
2019-04-27T06:30:42.949Z,96016.38
2019-04-27T06:33:27.243Z,96020.06
2019-04-27T06:35:49.541Z,96022.29
2019-04-27T06:38:21.099Z,96027.17
2019-04-27T06:40:52.360Z,96023.00
2019-04-27T06:43:24.448Z,96024.66
2019-04-27T06:45:55.783Z,96022.67
2019-04-27T06:48:27.148Z,96028.24
2019-04-27T06:51:03.587Z,96025.98
2019-04-27T06:53:31.587Z,96022.73
2019-04-27T06:56:02.867Z,96026.81
2019-04-27T06:58:34.460Z,96018.48
2019-04-27T07:01:05.661Z,96026.27
2019-04-27T07:03:36.856Z,96028.82
2019-04-27T07:06:08.820Z,96024.77
2019-04-27T07:08:40.251Z,96025.14
2019-04-27T07:11:11.750Z,96025.14
2019-04-27T07:13:42.911Z,96016.30
2019-04-27T07:16:14.246Z,96020.38
2019-04-27T07:18:45.704Z,96016.97
2019-04-27T07:21:21.621Z,96018.59
2019-04-27T07:23:59.844Z,96025.81
2019-04-27T07:26:31.362Z,96025.45
2019-04-27T07:29:02.801Z,96024.53
2019-04-27T07:31:34.047Z,96031.48
2019-04-27T07:34:05.272Z,96031.03
2019-04-27T07:36:36.515Z,96029.16
2019-04-27T07:39:11.479Z,96031.29
2019-04-27T07:41:42.453Z,96030.30
2019-04-27T07:44:39.148Z,96031.78
2019-04-27T07:47:30.740Z,96027.86
2019-04-27T07:50:01.518Z,96026.07
2019-04-27T07:52:33.164Z,96028.73
2019-04-27T07:55:04.471Z,96034.69
2019-04-27T07:57:35.743Z,96031.41
2019-04-27T08:00:08.830Z,96033.84
2019-04-27T08:02:41.326Z,96038.73
2019-04-27T08:05:12.731Z,96040.78
2019-04-27T08:07:44.047Z,96039.36
2019-04-27T08:10:16.125Z,96033.41
2019-04-27T08:12:47.355Z,96041.27
2019-04-27T08:15:19.105Z,96038.28
2019-04-27T08:17:50.438Z,96043.78
2019-04-27T08:20:22.039Z,96034.34
2019-04-27T08:22:53.463Z,96047.30
2019-04-27T08:25:25.186Z,96034.92
2019-04-27T08:28:19.597Z,96036.01
2019-04-27T08:31:15.857Z,96031.58
2019-04-27T08:33:48.629Z,96029.11
2019-04-27T08:36:20.216Z,96025.23
2019-04-27T08:38:51.675Z,96026.27
2019-04-27T08:41:22.923Z,96027.83
2019-04-27T08:43:54.258Z,96023.27
2019-04-27T08:46:25.724Z,96030.06
2019-04-27T08:48:58.709Z,96026.84
2019-04-27T08:51:30.275Z,96021.28
2019-04-27T08:54:01.764Z,96025.73
2019-04-27T08:56:33.249Z,96029.36
2019-04-27T08:59:04.927Z,96029.56
2019-04-27T09:01:36.191Z,96022.18
2019-04-27T09:04:09.232Z,96026.52
2019-04-27T09:06:42.532Z,96025.98
2019-04-27T09:09:21.591Z,96026.95
2019-04-27T09:11:59.482Z,96026.97
2019-04-27T09:14:45.374Z,96022.99
2019-04-27T09:17:41.963Z,96030.41
2019-04-27T09:20:32.605Z,96039.52
2019-04-27T09:23:03.885Z,96038.64
2019-04-27T09:25:35.371Z,96033.17
2019-04-27T09:28:08.653Z,96035.58
2019-04-27T09:30:40.244Z,96027.02
2019-04-27T09:33:11.933Z,96031.48
2019-04-27T09:35:46.616Z,96026.61
2019-04-27T09:38:18.555Z,96023.52
2019-04-27T09:40:49.932Z,96034.00
2019-04-27T09:43:21.485Z,96031.52
2019-04-27T09:45:52.935Z,96037.00
2019-04-27T09:48:25.904Z,96040.13
2019-04-27T09:50:57.503Z,96036.77
2019-04-27T09:53:29.035Z,96030.98
2019-04-27T09:56:00.632Z,96027.51
2019-04-27T09:58:31.994Z,96032.95
2019-04-27T10:01:03.582Z,96030.39
2019-04-27T10:03:36.215Z,96031.91
2019-04-27T10:06:09.124Z,96026.91
2019-04-27T10:08:40.663Z,96018.53
2019-04-27T10:11:12.116Z,96015.52
2019-04-27T10:13:43.407Z,96016.41
2019-04-27T10:16:14.935Z,96013.22
2019-04-27T10:18:46.607Z,96011.55
2019-04-27T10:21:17.891Z,96005.13
2019-04-27T10:23:49.276Z,96018.33
2019-04-27T10:26:20.490Z,96010.72
2019-04-27T10:28:51.797Z,96007.08
2019-04-27T10:31:23.235Z,96002.73
2019-04-27T10:33:55.943Z,96010.84
2019-04-27T10:36:39.833Z,96004.73
2019-04-27T10:39:13.398Z,95995.65
2019-04-27T10:42:15.214Z,96000.56
2019-04-27T10:45:09.418Z,96008.02
2019-04-27T10:47:49.473Z,96009.81
2019-04-27T10:50:32.524Z,96003.93
2019-04-27T10:53:18.297Z,95998.47
2019-04-27T10:56:07.244Z,96004.04
2019-04-27T10:58:38.846Z,96012.33
2019-04-27T11:01:10.097Z,96001.59
2019-04-27T11:04:05.652Z,96008.98
2019-04-27T11:06:39.763Z,96008.33
2019-04-27T11:09:12.072Z,96007.30
2019-04-27T11:11:43.419Z,96006.19
2019-04-27T11:14:16.004Z,96001.41
2019-04-27T11:17:00.071Z,96000.56
2019-04-27T11:19:31.373Z,96002.23
2019-04-27T11:22:03.000Z,95995.09
2019-04-27T11:24:34.224Z,95990.00
2019-04-27T11:27:05.903Z,95983.60
2019-04-27T11:29:46.712Z,95983.30
2019-04-27T11:32:35.890Z,95977.70
2019-04-27T11:35:35.814Z,95980.12
2019-04-27T11:38:07.705Z,95988.94
2019-04-27T11:40:39.161Z,96006.73
2019-04-27T11:43:26.077Z,96004.03
2019-04-27T11:46:18.719Z,96002.17
2019-04-27T11:49:07.870Z,96003.25
2019-04-27T11:51:39.124Z,96004.58
2019-04-27T11:54:10.458Z,95993.09
2019-04-27T11:56:42.361Z,96006.60
2019-04-27T12:01:50.614Z,95996.41
2019-04-27T12:04:48.385Z,95989.81
2019-04-27T12:07:23.346Z,95994.89
2019-04-27T12:09:59.979Z,95987.66
2019-04-27T12:12:32.004Z,95989.94
2019-04-27T12:15:03.216Z,95996.73
2019-04-27T12:17:41.095Z,95996.09
2019-04-27T12:20:39.739Z,96001.36
2019-04-27T12:23:16.553Z,96000.06
2019-04-27T12:25:58.087Z,96002.88
2019-04-27T12:28:52.592Z,96003.38
2019-04-27T12:31:32.842Z,96002.36
2019-04-27T12:34:16.292Z,96004.34
2019-04-27T12:37:07.302Z,95993.45
2019-04-27T12:39:38.758Z,95985.87
2019-04-27T12:42:10.825Z,95984.75
2019-04-27T12:45:00.425Z,95982.14
2019-04-27T12:47:31.799Z,95984.39
2019-04-27T12:50:03.076Z,95987.92
2019-04-27T12:52:35.983Z,95994.44
2019-04-27T12:55:25.739Z,95985.17
2019-04-27T12:58:16.458Z,95987.47
2019-04-27T13:00:49.635Z,95980.45
2019-04-27T13:03:21.187Z,95977.83
2019-04-27T13:05:52.854Z,95971.95
2019-04-27T13:08:25.861Z,95979.17
2019-04-27T13:10:57.404Z,95975.84
2019-04-27T13:13:28.781Z,95971.71
2019-04-27T13:15:59.985Z,95965.80
2019-04-27T13:18:31.456Z,95955.34
2019-04-27T13:21:02.724Z,95953.45
2019-04-27T13:23:33.952Z,95949.45
2019-04-27T13:26:06.243Z,95951.04
2019-04-27T13:28:38.154Z,95936.45
2019-04-27T13:31:09.510Z,95932.27
2019-04-27T13:33:40.745Z,95931.05
2019-04-27T13:36:12.474Z,95938.61
2019-04-27T13:38:44.388Z,95924.52
2019-04-27T13:41:26.166Z,95917.92
2019-04-27T13:43:48.625Z,95911.06
2019-04-27T13:46:33.574Z,95926.70
2019-04-27T13:49:22.528Z,95929.06
2019-04-27T13:52:07.553Z,95919.68
2019-04-27T13:54:38.857Z,95912.47
2019-04-27T13:57:10.347Z,95931.42
2019-04-27T13:59:41.922Z,95919.40
2019-04-27T14:02:16.150Z,95912.58
2019-04-27T14:04:47.523Z,95900.66
2019-04-27T14:07:19.071Z,95903.45
2019-04-27T14:09:50.643Z,95902.80
2019-04-27T14:12:22.363Z,95881.12
2019-04-27T14:14:53.936Z,95893.81
2019-04-27T14:17:25.416Z,95888.36
2019-04-27T14:19:56.969Z,95885.77
2019-04-27T14:22:31.343Z,95884.64
2019-04-27T14:25:01.402Z,95890.69
2019-04-27T14:27:40.553Z,95885.88
2019-04-27T14:30:15.431Z,95883.66
2019-04-27T14:32:48.811Z,95874.09
2019-04-27T14:35:21.662Z,95807.13
2019-04-27T14:37:52.907Z,95879.97
2019-04-27T14:40:24.317Z,95864.31
2019-04-27T14:42:55.949Z,95875.19
2019-04-27T14:45:28.628Z,95871.38
2019-04-27T14:48:00.054Z,95858.00
2019-04-27T14:50:31.246Z,95883.72
2019-04-27T14:53:02.456Z,95868.76
2019-04-27T14:55:33.709Z,95871.28
2019-04-27T14:58:05.223Z,95868.73
2019-04-27T15:00:38.473Z,95873.23
2019-04-27T15:03:10.144Z,95880.83
2019-04-27T15:05:43.346Z,95883.09
2019-04-27T15:08:18.447Z,95879.34
2019-04-27T15:10:49.753Z,95874.77
2019-04-27T15:13:21.120Z,95867.46
2019-04-27T15:15:52.611Z,95863.20
2019-04-27T15:18:25.503Z,95862.82
2019-04-27T15:20:58.470Z,95870.84
2019-04-27T15:23:30.885Z,95862.35
2019-04-27T15:26:02.932Z,95854.36
2019-04-27T15:28:36.585Z,95857.33
2019-04-27T15:31:29.440Z,95860.03
2019-04-27T15:34:27.503Z,95855.14
2019-04-27T15:37:33.956Z,95853.38
2019-04-27T15:40:28.998Z,95847.52
2019-04-27T15:43:22.922Z,95852.23
2019-04-27T15:45:57.722Z,95848.89
2019-04-27T15:48:30.693Z,95850.70
2019-04-27T15:51:12.600Z,95843.77
2019-04-27T15:53:40.773Z,95845.48
2019-04-27T15:56:09.769Z,95839.03
2019-04-27T15:58:41.670Z,95839.78
2019-04-27T16:01:49.028Z,95837.70
2019-04-27T16:04:20.353Z,95849.70
2019-04-27T16:06:51.580Z,95849.45
2019-04-27T16:09:25.548Z,95848.94
2019-04-27T16:12:14.315Z,95847.77
2019-04-27T16:15:05.126Z,95850.70
2019-04-27T16:17:42.351Z,95840.53
2019-04-27T16:20:10.344Z,95835.19
2019-04-27T16:22:41.660Z,95827.00
2019-04-27T16:25:13.632Z,95829.19
2019-04-27T16:27:48.989Z,95824.80
2019-04-27T16:30:22.424Z,95824.48
2019-04-27T16:32:58.379Z,95818.88
2019-04-27T16:35:34.126Z,95816.72
2019-04-27T16:38:33.560Z,95809.03
2019-04-27T16:41:21.166Z,95810.57
2019-04-27T16:43:52.914Z,95807.52
2019-04-27T16:46:24.547Z,95806.74
2019-04-27T16:48:55.921Z,95810.84
2019-04-27T16:51:29.735Z,95800.69
2019-04-27T16:54:01.937Z,95802.28
2019-04-27T16:56:33.271Z,95799.61
2019-04-27T16:59:26.747Z,95802.37
2019-04-27T17:01:40.090Z,95802.27
2019-04-27T17:04:14.981Z,95802.54
2019-04-27T17:06:46.365Z,95796.84
2019-04-27T17:09:18.948Z,95789.74
2019-04-27T17:11:51.788Z,95793.97
2019-04-27T17:14:36.589Z,95797.81
2019-04-27T17:17:30.299Z,95793.23
2019-04-27T17:20:03.696Z,95794.77
2019-04-27T17:22:35.211Z,95799.00
2019-04-27T17:25:08.850Z,95797.55
2019-04-27T17:27:48.430Z,95798.55
2019-04-27T17:30:20.099Z,95719.10
2019-04-27T17:33:15.596Z,95802.08
2019-04-27T17:35:46.308Z,95800.83
2019-04-27T17:38:19.557Z,95798.75
2019-04-27T17:40:51.833Z,95799.97
2019-04-27T17:43:23.340Z,95806.41
2019-04-27T17:45:54.989Z,95802.91
2019-04-27T17:48:28.754Z,95804.11
2019-04-27T17:51:02.458Z,95808.52
2019-04-27T17:53:33.289Z,95813.58
2019-04-27T17:56:05.991Z,95814.32
2019-04-27T17:58:39.862Z,95820.45
2019-04-27T18:01:14.087Z,95809.09
2019-04-27T18:03:44.476Z,95819.23
2019-04-27T18:06:15.988Z,95818.10
2019-04-27T18:08:48.577Z,95821.03
2019-04-27T18:11:25.845Z,95822.10
2019-04-27T18:14:15.544Z,95823.17
2019-04-27T18:16:48.188Z,95822.60
2019-04-27T18:19:24.813Z,95823.44
2019-04-27T18:22:06.450Z,95819.86
2019-04-27T18:25:15.286Z,95835.30
2019-04-27T18:27:54.090Z,95840.13
2019-04-27T18:30:33.654Z,95840.27
2019-04-27T18:33:05.167Z,95838.47
2019-04-27T18:35:38.636Z,95845.11
2019-04-27T18:38:10.109Z,95843.36
2019-04-27T18:40:41.698Z,95851.30
2019-04-27T18:43:15.099Z,95850.43
2019-04-27T18:45:48.512Z,95849.88
2019-04-27T18:48:40.266Z,95853.73
2019-04-27T18:51:30.496Z,95861.93
2019-04-27T18:54:03.558Z,95864.81
2019-04-27T18:56:41.771Z,95866.83
2019-04-27T18:59:13.341Z,95865.61
2019-04-27T19:01:44.968Z,95868.81
2019-04-27T19:04:16.341Z,95865.05
2019-04-27T19:06:47.745Z,95871.29
2019-04-27T19:09:20.029Z,95870.72
2019-04-27T19:11:56.220Z,95876.02
2019-04-27T19:14:26.091Z,95871.98
2019-04-27T19:16:58.781Z,95872.76
2019-04-27T19:19:30.537Z,95878.45
2019-04-27T19:22:02.309Z,95874.97
2019-04-27T19:24:33.871Z,95877.66
2019-04-27T19:27:21.204Z,95871.98
2019-04-27T19:29:55.576Z,95869.94
2019-04-27T19:32:29.041Z,95858.57
2019-04-27T19:35:00.265Z,95870.11
2019-04-27T19:37:32.029Z,95867.58
2019-04-27T19:40:03.262Z,95867.28
2019-04-27T19:42:34.544Z,95873.30
2019-04-27T19:45:06.589Z,95871.11
2019-04-27T19:47:38.581Z,95868.83
2019-04-27T19:50:10.386Z,95866.69
2019-04-27T19:52:42.520Z,95867.55
2019-04-27T19:55:14.006Z,95864.83
2019-04-27T19:57:45.707Z,95872.53
2019-04-27T20:00:30.482Z,95866.48
2019-04-27T20:03:03.016Z,95870.26
2019-04-27T20:05:34.735Z,95868.84
2019-04-27T20:08:08.878Z,95869.81
2019-04-27T20:10:43.059Z,95875.58
2019-04-27T20:13:17.318Z,95874.80
2019-04-27T20:15:48.727Z,95880.87
2019-04-27T20:18:20.890Z,95882.48
2019-04-27T20:20:53.427Z,95881.08
2019-04-27T20:23:24.632Z,95881.70
2019-04-27T20:25:56.198Z,95889.13
2019-04-27T20:28:27.539Z,95891.31
2019-04-27T20:30:59.664Z,95885.48
2019-04-27T20:33:31.321Z,95893.02
2019-04-27T20:36:02.881Z,95892.47
2019-04-27T20:38:34.250Z,95894.58
2019-04-27T20:41:05.841Z,95900.66
2019-04-27T20:43:37.405Z,95897.02
2019-04-27T20:46:08.660Z,95902.14
2019-04-27T20:48:41.377Z,95911.11
2019-04-27T20:51:13.277Z,95916.72
2019-04-27T20:53:48.362Z,95914.48
2019-04-27T20:56:19.969Z,95912.27
2019-04-27T20:58:51.849Z,95908.30
2019-04-27T21:01:23.511Z,95909.63
2019-04-27T21:03:57.778Z,95913.78
2019-04-27T21:06:40.993Z,95913.42
2019-04-27T21:09:16.447Z,95909.81
2019-04-27T21:11:48.932Z,95910.61
2019-04-27T21:14:21.726Z,95903.05
2019-04-27T21:16:53.609Z,95904.33
2019-04-27T21:19:25.016Z,95896.66
2019-04-27T21:21:56.407Z,95893.30
2019-04-27T21:24:27.786Z,95900.41
2019-04-27T21:26:59.845Z,95899.46
2019-04-27T21:29:31.294Z,95897.98
2019-04-27T21:32:02.701Z,95900.09
2019-04-27T21:34:34.481Z,95894.40
2019-04-27T21:37:05.931Z,95893.03
2019-04-27T21:39:37.475Z,95892.00
2019-04-27T21:42:09.049Z,95887.80
2019-04-27T21:44:41.976Z,95890.02
2019-04-27T21:47:13.422Z,95894.89
2019-04-27T21:49:45.041Z,95898.97
2019-04-27T21:52:25.116Z,95901.19
2019-04-27T21:54:56.674Z,95902.70
2019-04-27T21:57:28.299Z,95903.05
2019-04-27T22:00:00.792Z,95900.59
2019-04-27T22:02:32.836Z,95904.80
2019-04-27T22:05:08.335Z,95903.86
2019-04-27T22:07:39.682Z,95909.31
2019-04-27T22:10:11.712Z,95905.48
2019-04-27T22:12:43.265Z,95910.27
2019-04-27T22:15:14.865Z,95915.02
2019-04-27T22:17:46.519Z,95916.37
2019-04-27T22:20:17.965Z,95918.22
2019-04-27T22:22:51.713Z,95917.52
2019-04-27T22:25:23.477Z,95917.64
2019-04-27T22:27:55.191Z,95919.51
2019-04-27T22:30:26.486Z,95917.16
2019-04-27T22:32:58.293Z,95922.02
2019-04-27T22:35:31.305Z,95928.53
2019-04-27T22:38:02.948Z,95919.70
2019-04-27T22:41:02.203Z,95925.04
2019-04-27T22:43:52.363Z,95931.21
2019-04-27T22:46:24.391Z,95924.91
2019-04-27T22:48:57.060Z,95939.58
2019-04-27T22:51:28.266Z,95937.89
2019-04-27T22:54:01.344Z,95934.06
2019-04-27T22:56:32.941Z,95931.42
2019-04-27T22:59:27.055Z,95938.87
2019-04-27T23:02:12.759Z,95929.47
2019-04-27T23:04:48.412Z,95927.19
2019-04-27T23:07:21.260Z,95928.61
2019-04-27T23:09:52.611Z,95922.18
2019-04-27T23:12:23.933Z,95927.01
2019-04-27T23:14:55.446Z,95920.73
2019-04-27T23:17:51.762Z,95926.30
2019-04-27T23:20:24.125Z,95924.94
2019-04-27T23:22:55.765Z,95921.95
2019-04-27T23:25:26.992Z,95918.25
2019-04-27T23:27:58.230Z,95932.41
2019-04-27T23:30:41.106Z,95936.41
2019-04-27T23:33:12.354Z,95941.74
2019-04-27T23:35:44.203Z,95946.73
2019-04-27T23:38:20.567Z,95937.48
2019-04-27T23:40:51.935Z,95942.73
2019-04-27T23:43:23.336Z,95948.02
2019-04-27T23:45:55.449Z,95949.19
2019-04-27T23:48:26.864Z,95960.92
2019-04-27T23:51:04.345Z,95952.21
2019-04-27T23:53:36.913Z,95965.26
2019-04-27T23:56:08.317Z,95979.33
2019-04-27T23:58:40.076Z,95976.64
